createdAt,value
2022-12-24T09:05:09.369Z,9.2
2022-12-24T09:06:14.603Z,9.3
2022-12-24T09:07:20.683Z,9.3
2022-12-24T09:08:26.663Z,9.4
2022-12-24T09:09:32.750Z,9.4
2022-12-24T09:10:38.904Z,9.5
2022-12-24T09:11:45.019Z,9.5
2022-12-24T09:12:51.032Z,9.5
2022-12-24T09:13:57.191Z,9.6
2022-12-24T09:15:03.186Z,9.5
2022-12-24T09:16:09.262Z,9.6
2022-12-24T09:17:15.392Z,9.6
2022-12-24T09:18:21.493Z,9.6
2022-12-24T09:19:27.521Z,9.6
2022-12-24T09:20:33.632Z,9.5
2022-12-24T09:21:39.717Z,9.5
2022-12-24T09:22:45.767Z,9.5
2022-12-24T09:23:51.819Z,9.6
2022-12-24T09:24:58.013Z,9.6
2022-12-24T09:26:03.958Z,9.6
2022-12-24T09:27:10.064Z,9.6
2022-12-24T09:28:16.107Z,9.7
2022-12-24T09:29:22.216Z,9.7
2022-12-24T09:30:28.246Z,9.7
2022-12-24T09:31:34.371Z,9.7
2022-12-24T09:32:40.375Z,9.7
2022-12-24T09:33:46.544Z,9.8
2022-12-24T09:34:52.762Z,9.7
2022-12-24T09:35:58.808Z,9.7
2022-12-24T09:37:04.979Z,9.8
2022-12-24T09:38:11.126Z,9.9
2022-12-24T09:39:17.299Z,9.9
2022-12-24T09:40:23.384Z,9.9
2022-12-24T09:41:29.529Z,9.9
2022-12-24T09:42:35.685Z,10
2022-12-24T09:43:41.800Z,10.1
2022-12-24T09:44:47.991Z,10.1
2022-12-24T09:45:54.101Z,10.2
2022-12-24T09:47:00.240Z,10.2
2022-12-24T09:48:06.573Z,10.3
2022-12-24T09:49:11.765Z,10.4
2022-12-24T09:50:18.015Z,10.5
2022-12-24T09:51:24.048Z,10.5
2022-12-24T09:52:30.197Z,10.6
2022-12-24T09:53:36.457Z,10.7
2022-12-24T09:54:42.487Z,10.7
2022-12-24T09:55:48.671Z,10.7
2022-12-24T09:56:54.741Z,10.7
2022-12-24T09:58:01.027Z,10.8
2022-12-24T09:59:07.013Z,10.8
2022-12-24T10:00:13.183Z,10.9
2022-12-24T10:01:19.305Z,10.8
2022-12-24T10:02:25.434Z,10.8
2022-12-24T10:03:31.625Z,10.8
2022-12-24T10:04:37.755Z,10.8
2022-12-24T10:05:43.848Z,10.8
2022-12-24T10:06:50.089Z,10.8
2022-12-24T10:07:56.119Z,10.8
2022-12-24T10:09:02.262Z,10.8
2022-12-24T10:10:08.404Z,10.8
2022-12-24T10:11:14.549Z,10.8
2022-12-24T10:12:20.684Z,10.8
2022-12-24T10:13:26.869Z,10.8
2022-12-24T10:14:32.956Z,10.8
2022-12-24T10:15:39.091Z,10.8
2022-12-24T10:16:45.373Z,10.8
2022-12-24T10:17:50.743Z,10.9
2022-12-24T10:18:56.804Z,10.8
2022-12-24T10:20:02.914Z,11
2022-12-24T10:21:09.087Z,11
2022-12-24T10:22:15.171Z,11
2022-12-24T10:23:21.333Z,11
2022-12-24T10:24:27.473Z,11
2022-12-24T10:25:33.599Z,11
2022-12-24T10:26:39.693Z,11
2022-12-24T10:27:45.828Z,10.9
2022-12-24T10:28:51.946Z,10.9
2022-12-24T10:29:58.095Z,10.8
2022-12-24T10:31:04.260Z,10.8
2022-12-24T10:32:10.401Z,10.9
2022-12-24T10:33:16.482Z,10.8
2022-12-24T10:34:22.678Z,10.8
2022-12-24T10:35:28.802Z,10.6
2022-12-24T10:36:34.865Z,10.7
2022-12-24T10:37:40.984Z,10.8
2022-12-24T10:38:47.139Z,10.9
2022-12-24T10:39:53.317Z,10.9
2022-12-24T10:40:59.399Z,11
2022-12-24T10:42:05.536Z,11
2022-12-24T10:43:11.620Z,11
2022-12-24T10:44:17.744Z,11
2022-12-24T10:45:24.012Z,11
2022-12-24T10:46:29.295Z,11
2022-12-24T10:47:35.401Z,11
2022-12-24T10:48:41.515Z,11.1
2022-12-24T10:49:47.712Z,11.1
2022-12-24T10:50:53.827Z,11.1
2022-12-24T10:51:59.921Z,11.1
2022-12-24T10:53:06.038Z,11.1
2022-12-24T10:54:12.169Z,11.1
2022-12-24T10:55:18.326Z,11.1
2022-12-24T10:56:24.452Z,11
2022-12-24T10:57:30.570Z,10.9
2022-12-24T10:58:36.741Z,10.9
2022-12-24T10:59:42.847Z,10.9
2022-12-24T11:00:48.976Z,10.9
2022-12-24T11:01:55.082Z,10.9
2022-12-24T11:03:01.208Z,10.9
2022-12-24T11:04:07.342Z,11
2022-12-24T11:05:13.508Z,10.9
2022-12-24T11:06:19.682Z,10.9
2022-12-24T11:07:25.786Z,10.9
2022-12-24T11:08:31.941Z,10.9
2022-12-24T11:09:38.047Z,11
2022-12-24T11:10:44.130Z,11
2022-12-24T11:11:50.255Z,11
2022-12-24T11:12:56.398Z,11
2022-12-24T11:14:02.715Z,11
2022-12-24T11:15:07.876Z,10.9
2022-12-24T11:16:13.943Z,10.8
2022-12-24T11:17:20.030Z,10.8
2022-12-24T11:18:26.067Z,10.7
2022-12-24T11:19:32.184Z,10.7
2022-12-24T11:20:38.168Z,10.7
2022-12-24T11:21:44.322Z,10.6
2022-12-24T11:22:50.324Z,10.6
2022-12-24T11:23:56.340Z,10.6
2022-12-24T11:25:02.399Z,10.6
2022-12-24T11:26:08.489Z,10.5
2022-12-24T11:27:14.529Z,10.5
2022-12-24T11:28:20.597Z,10.5
2022-12-24T11:29:26.648Z,10.5
2022-12-24T11:30:32.780Z,10.5
2022-12-24T11:31:38.815Z,10.6
2022-12-24T11:32:44.924Z,10.7
2022-12-24T11:33:50.930Z,10.8
2022-12-24T11:34:56.978Z,10.8
2022-12-24T11:36:02.984Z,10.8
2022-12-24T11:37:09.039Z,10.7
2022-12-24T11:38:15.171Z,10.7
2022-12-24T11:39:21.161Z,10.5
2022-12-24T11:40:27.212Z,10.5
2022-12-24T11:41:33.276Z,10.4
2022-12-24T11:42:39.408Z,10.4
2022-12-24T11:43:45.537Z,10.4
2022-12-24T11:44:51.666Z,10.4
2022-12-24T11:45:57.824Z,10.5
2022-12-24T11:47:03.935Z,10.5
2022-12-24T11:48:10.092Z,10.5
2022-12-24T11:49:16.212Z,10.5
2022-12-24T11:50:22.399Z,10.6
2022-12-24T11:51:28.558Z,10.6
2022-12-24T11:52:34.620Z,10.6
2022-12-24T11:53:40.765Z,10.6
2022-12-24T11:54:46.903Z,10.6
2022-12-24T11:55:53.071Z,10.6
2022-12-24T11:56:59.338Z,10.6
2022-12-24T11:58:04.488Z,10.6
2022-12-24T11:59:10.576Z,10.6
2022-12-24T12:00:16.594Z,10.6
2022-12-24T12:01:22.651Z,10.6
2022-12-24T12:02:28.813Z,10.6
2022-12-24T12:03:34.769Z,10.6
2022-12-24T12:04:40.878Z,10.6
2022-12-24T12:05:46.882Z,10.6
2022-12-24T12:06:53.091Z,10.6
2022-12-24T12:07:59.148Z,10.6
2022-12-24T12:09:05.089Z,10.7
2022-12-24T12:10:11.139Z,10.6
2022-12-24T12:11:17.181Z,10.6
2022-12-24T12:12:23.246Z,10.6
2022-12-24T12:13:29.294Z,10.6
2022-12-24T12:14:35.346Z,10.7
2022-12-24T12:15:41.580Z,10.8
2022-12-24T12:16:47.461Z,10.8
2022-12-24T12:17:53.592Z,10.9
2022-12-24T12:18:59.682Z,10.8
2022-12-24T12:20:05.637Z,10.9
2022-12-24T12:21:11.705Z,10.9
2022-12-24T12:22:17.740Z,10.9
2022-12-24T12:23:23.882Z,10.9
2022-12-24T12:24:29.864Z,10.9
2022-12-24T12:25:35.996Z,11
2022-12-24T12:26:42.125Z,11
2022-12-24T12:27:48.250Z,11
2022-12-24T12:28:54.425Z,11
2022-12-24T12:30:00.540Z,10.9
2022-12-24T12:31:06.665Z,10.9
2022-12-24T12:32:12.795Z,10.8
2022-12-24T12:33:18.959Z,10.8
2022-12-24T12:34:25.109Z,10.8
2022-12-24T12:35:31.212Z,10.7
2022-12-24T12:36:37.388Z,10.7
2022-12-24T12:37:43.533Z,10.6
2022-12-24T12:38:49.614Z,10.6
2022-12-24T12:39:55.876Z,10.6
2022-12-24T12:41:01.190Z,10.6
2022-12-24T12:42:07.318Z,10.7
2022-12-24T12:43:13.264Z,10.6
2022-12-24T12:44:19.305Z,10.6
2022-12-24T12:45:25.359Z,10.7
2022-12-24T12:46:31.445Z,10.6
2022-12-24T12:47:37.479Z,10.6
2022-12-24T12:48:43.558Z,10.7
2022-12-24T12:49:49.695Z,10.7
2022-12-24T12:50:55.677Z,10.7
2022-12-24T12:52:01.720Z,10.6
2022-12-24T12:53:07.777Z,10.7
2022-12-24T12:54:13.883Z,10.7
2022-12-24T12:55:19.905Z,10.7
2022-12-24T12:56:25.965Z,10.6
2022-12-24T12:57:32.035Z,10.6
2022-12-24T12:58:38.067Z,10.6
2022-12-24T12:59:44.126Z,10.6
2022-12-24T13:00:50.195Z,10.6
2022-12-24T13:01:56.249Z,10.6
2022-12-24T13:03:02.317Z,10.6
2022-12-24T13:04:08.378Z,10.6
2022-12-24T13:05:14.434Z,10.6
2022-12-24T13:06:20.505Z,10.5
2022-12-24T13:07:26.554Z,10.5
2022-12-24T13:08:32.698Z,10.4
2022-12-24T13:09:38.822Z,10.3
2022-12-24T13:10:44.972Z,10.3
2022-12-24T13:11:51.096Z,10.3
2022-12-24T13:12:57.238Z,10.2
2022-12-24T13:14:03.455Z,10.2
2022-12-24T13:15:09.539Z,10.2
2022-12-24T13:16:15.645Z,10.2
2022-12-24T13:17:21.803Z,10.2
2022-12-24T13:18:27.908Z,10.2
2022-12-24T13:19:34.059Z,10.2
2022-12-24T13:20:40.193Z,10.2
2022-12-24T13:21:46.373Z,10.2
2022-12-24T13:22:52.663Z,10.3
2022-12-24T13:23:57.796Z,10.2
2022-12-24T13:25:03.923Z,10.2
2022-12-24T13:26:10.019Z,10.2
2022-12-24T13:27:16.007Z,10.3
2022-12-24T13:28:22.053Z,10.2
2022-12-24T13:29:28.120Z,10.3
2022-12-24T13:30:34.190Z,10.2
2022-12-24T13:31:40.282Z,10.2
2022-12-24T13:32:46.392Z,10.1
2022-12-24T13:33:52.709Z,10.1
2022-12-24T13:34:58.466Z,10
2022-12-24T13:36:04.648Z,9.9
2022-12-24T13:37:10.832Z,9.8
2022-12-24T13:38:16.620Z,9.8
2022-12-24T13:39:22.684Z,9.7
2022-12-24T13:40:28.819Z,9.7
2022-12-24T13:41:34.800Z,9.7
2022-12-24T13:42:40.878Z,9.7
2022-12-24T13:43:46.934Z,9.7
2022-12-24T13:44:53.105Z,9.7
2022-12-24T13:45:59.168Z,9.7
2022-12-24T13:47:05.195Z,9.7
2022-12-24T13:48:11.228Z,9.7
2022-12-24T13:49:17.296Z,9.6
2022-12-24T13:50:23.361Z,9.5
2022-12-24T13:51:29.542Z,9.5
2022-12-24T13:52:35.688Z,9.5
2022-12-24T13:53:41.841Z,9.5
2022-12-24T13:54:47.988Z,9.5
2022-12-24T13:55:54.119Z,9.5
2022-12-24T13:57:00.286Z,9.5
2022-12-24T13:58:06.414Z,9.5
2022-12-24T13:59:12.568Z,9.5
2022-12-24T14:00:18.715Z,9.5
2022-12-24T14:01:24.946Z,9.5
2022-12-24T14:02:31.043Z,9.5
2022-12-24T14:03:37.200Z,9.5
2022-12-24T14:04:43.302Z,9.5
2022-12-24T14:05:49.622Z,9.4
2022-12-24T14:06:54.834Z,9.4
2022-12-24T14:08:00.882Z,9.4
2022-12-24T14:09:06.950Z,9.4
2022-12-24T14:10:13.063Z,9.3
2022-12-24T14:11:19.196Z,9.4
2022-12-24T14:12:25.144Z,9.3
2022-12-24T14:13:31.401Z,9.3
2022-12-24T14:14:37.494Z,9.3
2022-12-24T14:15:43.410Z,9.3
2022-12-24T14:16:49.551Z,9.3
2022-12-24T14:17:55.644Z,9.3
2022-12-24T14:19:01.597Z,9.3
2022-12-24T14:20:07.694Z,9.2
2022-12-24T14:21:13.821Z,9.2
2022-12-24T14:22:19.881Z,9.2
2022-12-24T14:23:25.882Z,9.2
2022-12-24T14:24:32.068Z,9.1
2022-12-24T14:25:38.041Z,9.1
2022-12-24T14:26:44.097Z,9.1
2022-12-24T14:27:50.318Z,9.1
2022-12-24T14:28:56.275Z,9
2022-12-24T14:30:02.409Z,9.1
2022-12-24T14:31:08.450Z,9
2022-12-24T14:32:14.575Z,9
2022-12-24T14:33:20.609Z,9
2022-12-24T14:34:26.762Z,9
2022-12-24T14:35:32.976Z,9
2022-12-24T14:36:38.999Z,9
2022-12-24T14:37:45.219Z,9
2022-12-24T14:38:51.302Z,9
2022-12-24T14:39:57.539Z,9
2022-12-24T14:41:03.617Z,8.9
2022-12-24T14:42:09.755Z,8.9
2022-12-24T14:43:15.944Z,8.9
2022-12-24T14:44:22.135Z,8.9
2022-12-24T14:45:28.305Z,8.9
2022-12-24T14:46:34.393Z,8.8
2022-12-24T14:47:40.549Z,8.8
2022-12-24T14:48:46.847Z,8.9
2022-12-24T14:49:52.172Z,8.8
2022-12-24T14:50:58.165Z,8.8
2022-12-24T14:52:04.267Z,8.8
2022-12-24T14:53:10.383Z,8.8
2022-12-24T14:54:16.454Z,8.9
2022-12-24T14:55:22.487Z,8.9
2022-12-24T14:56:28.523Z,8.8
2022-12-24T14:57:34.663Z,8.8
2022-12-24T14:58:40.781Z,8.8
2022-12-24T14:59:46.823Z,8.9
2022-12-24T15:00:52.858Z,8.8
2022-12-24T15:01:59.086Z,8.8
2022-12-24T15:03:05.022Z,8.8
2022-12-24T15:04:11.114Z,8.8
2022-12-24T15:05:17.219Z,8.8
2022-12-24T15:06:23.292Z,8.8
2022-12-24T15:07:29.331Z,8.8
2022-12-24T15:08:35.537Z,8.8
2022-12-24T15:09:41.477Z,8.8
2022-12-24T15:10:47.582Z,8.8
2022-12-24T15:11:53.601Z,8.8
2022-12-24T15:12:59.674Z,8.8
2022-12-24T15:14:05.775Z,8.8
2022-12-24T15:15:11.840Z,8.8
2022-12-24T15:16:17.960Z,8.8
2022-12-24T15:17:24.170Z,8.7
2022-12-24T15:18:30.320Z,8.7
2022-12-24T15:19:36.373Z,8.7
2022-12-24T15:20:42.545Z,8.7
2022-12-24T15:21:48.679Z,8.7
2022-12-24T15:22:54.826Z,8.7
2022-12-24T15:24:01.008Z,8.6
2022-12-24T15:25:07.175Z,8.6
2022-12-24T15:26:13.286Z,8.6
2022-12-24T15:27:19.444Z,8.6
2022-12-24T15:28:25.579Z,8.6
2022-12-24T15:29:31.738Z,8.6
2022-12-24T15:30:37.982Z,8.6
2022-12-24T15:31:44.192Z,8.6
